sensor_id;sensor_type;location;lat;lon;timestamp;P1;durP1;ratioP1;P2;durP2;ratioP2
68680;SDS011;55836;49.858;6.756;2024-01-25T00:01:22;10.43;;;3.20;;
68680;SDS011;55836;49.858;6.756;2024-01-25T00:03:48;9.37;;;3.63;;
68680;SDS011;55836;49.858;6.756;2024-01-25T00:06:14;6.33;;;3.00;;
68680;SDS011;55836;49.858;6.756;2024-01-25T00:08:40;7.97;;;2.60;;
68680;SDS011;55836;49.858;6.756;2024-01-25T00:11:06;7.57;;;2.70;;
68680;SDS011;55836;49.858;6.756;2024-01-25T00:13:34;12.63;;;3.37;;
68680;SDS011;55836;49.858;6.756;2024-01-25T00:16:00;8.90;;;3.67;;
68680;SDS011;55836;49.858;6.756;2024-01-25T00:18:26;6.60;;;2.87;;
68680;SDS011;55836;49.858;6.756;2024-01-25T00:20:54;11.07;;;3.30;;
68680;SDS011;55836;49.858;6.756;2024-01-25T00:23:20;8.87;;;2.87;;
68680;SDS011;55836;49.858;6.756;2024-01-25T00:25:47;12.83;;;3.37;;
68680;SDS011;55836;49.858;6.756;2024-01-25T00:28:13;5.20;;;2.37;;
68680;SDS011;55836;49.858;6.756;2024-01-25T00:30:39;10.07;;;3.40;;
68680;SDS011;55836;49.858;6.756;2024-01-25T00:33:05;7.17;;;2.80;;
68680;SDS011;55836;49.858;6.756;2024-01-25T00:35:31;7.13;;;2.77;;
68680;SDS011;55836;49.858;6.756;2024-01-25T00:37:57;8.67;;;2.77;;
68680;SDS011;55836;49.858;6.756;2024-01-25T00:40:25;13.20;;;3.10;;
68680;SDS011;55836;49.858;6.756;2024-01-25T00:42:51;8.07;;;2.80;;
68680;SDS011;55836;49.858;6.756;2024-01-25T00:45:20;9.90;;;2.50;;
68680;SDS011;55836;49.858;6.756;2024-01-25T00:47:47;12.07;;;3.27;;
68680;SDS011;55836;49.858;6.756;2024-01-25T00:50:13;8.13;;;2.87;;
68680;SDS011;55836;49.858;6.756;2024-01-25T00:52:42;7.77;;;3.37;;
68680;SDS011;55836;49.858;6.756;2024-01-25T00:55:08;6.60;;;2.60;;
68680;SDS011;55836;49.858;6.756;2024-01-25T00:57:34;6.27;;;2.23;;
68680;SDS011;55836;49.858;6.756;2024-01-25T01:00:00;10.07;;;2.70;;
68680;SDS011;55836;49.858;6.756;2024-01-25T01:02:27;8.27;;;3.13;;
68680;SDS011;55836;49.858;6.756;2024-01-25T01:04:56;12.83;;;2.63;;
68680;SDS011;55836;49.858;6.756;2024-01-25T01:07:24;10.60;;;2.47;;
68680;SDS011;55836;49.858;6.756;2024-01-25T01:09:50;7.37;;;3.17;;
68680;SDS011;55836;49.858;6.756;2024-01-25T01:12:16;6.93;;;3.10;;
68680;SDS011;55836;49.858;6.756;2024-01-25T01:14:42;6.97;;;2.63;;
68680;SDS011;55836;49.858;6.756;2024-01-25T01:17:08;10.07;;;2.83;;
68680;SDS011;55836;49.858;6.756;2024-01-25T01:19:34;7.03;;;3.13;;
68680;SDS011;55836;49.858;6.756;2024-01-25T01:22:00;6.57;;;2.73;;
68680;SDS011;55836;49.858;6.756;2024-01-25T01:24:26;5.53;;;2.20;;
68680;SDS011;55836;49.858;6.756;2024-01-25T01:26:52;6.33;;;3.43;;
68680;SDS011;55836;49.858;6.756;2024-01-25T01:29:18;3.90;;;2.27;;
68680;SDS011;55836;49.858;6.756;2024-01-25T01:31:44;13.00;;;3.57;;
68680;SDS011;55836;49.858;6.756;2024-01-25T01:34:10;10.47;;;3.67;;
68680;SDS011;55836;49.858;6.756;2024-01-25T01:36:39;11.50;;;2.97;;
68680;SDS011;55836;49.858;6.756;2024-01-25T01:39:05;8.63;;;3.40;;
68680;SDS011;55836;49.858;6.756;2024-01-25T01:41:31;5.93;;;2.60;;
68680;SDS011;55836;49.858;6.756;2024-01-25T01:43:57;7.83;;;2.53;;
68680;SDS011;55836;49.858;6.756;2024-01-25T01:46:34;5.40;;;2.47;;
68680;SDS011;55836;49.858;6.756;2024-01-25T01:49:01;8.43;;;2.53;;
68680;SDS011;55836;49.858;6.756;2024-01-25T01:51:28;11.77;;;3.30;;
68680;SDS011;55836;49.858;6.756;2024-01-25T01:53:54;7.73;;;2.50;;
68680;SDS011;55836;49.858;6.756;2024-01-25T01:56:20;8.33;;;2.37;;
68680;SDS011;55836;49.858;6.756;2024-01-25T01:58:47;5.10;;;2.60;;
68680;SDS011;55836;49.858;6.756;2024-01-25T02:01:13;5.63;;;1.80;;
68680;SDS011;55836;49.858;6.756;2024-01-25T02:03:39;6.33;;;2.57;;
68680;SDS011;55836;49.858;6.756;2024-01-25T02:06:06;9.17;;;2.53;;
68680;SDS011;55836;49.858;6.756;2024-01-25T02:08:32;9.87;;;3.53;;
68680;SDS011;55836;49.858;6.756;2024-01-25T02:10:59;16.10;;;3.27;;
68680;SDS011;55836;49.858;6.756;2024-01-25T02:13:25;5.73;;;2.87;;
68680;SDS011;55836;49.858;6.756;2024-01-25T02:15:51;12.23;;;3.33;;
68680;SDS011;55836;49.858;6.756;2024-01-25T02:18:17;5.53;;;2.30;;
68680;SDS011;55836;49.858;6.756;2024-01-25T02:20:43;8.37;;;2.87;;
68680;SDS011;55836;49.858;6.756;2024-01-25T02:23:09;13.97;;;3.30;;
68680;SDS011;55836;49.858;6.756;2024-01-25T02:25:35;7.17;;;2.90;;
68680;SDS011;55836;49.858;6.756;2024-01-25T02:28:01;10.10;;;2.37;;
68680;SDS011;55836;49.858;6.756;2024-01-25T02:30:27;7.73;;;2.87;;
68680;SDS011;55836;49.858;6.756;2024-01-25T02:32:53;5.50;;;2.27;;
68680;SDS011;55836;49.858;6.756;2024-01-25T02:35:20;8.73;;;2.93;;
68680;SDS011;55836;49.858;6.756;2024-01-25T02:37:46;9.63;;;2.70;;
68680;SDS011;55836;49.858;6.756;2024-01-25T02:40:12;8.43;;;3.10;;
68680;SDS011;55836;49.858;6.756;2024-01-25T02:42:38;7.90;;;3.23;;
68680;SDS011;55836;49.858;6.756;2024-01-25T02:45:04;5.60;;;2.37;;
68680;SDS011;55836;49.858;6.756;2024-01-25T02:47:30;10.20;;;3.00;;
68680;SDS011;55836;49.858;6.756;2024-01-25T02:49:56;15.30;;;3.87;;
68680;SDS011;55836;49.858;6.756;2024-01-25T02:52:22;12.77;;;3.83;;
68680;SDS011;55836;49.858;6.756;2024-01-25T02:54:48;8.03;;;3.20;;
68680;SDS011;55836;49.858;6.756;2024-01-25T02:57:15;9.53;;;3.50;;
68680;SDS011;55836;49.858;6.756;2024-01-25T02:59:41;6.37;;;2.33;;
68680;SDS011;55836;49.858;6.756;2024-01-25T03:02:07;12.17;;;3.27;;
68680;SDS011;55836;49.858;6.756;2024-01-25T03:04:33;11.87;;;3.70;;
68680;SDS011;55836;49.858;6.756;2024-01-25T03:06:59;9.40;;;2.90;;
68680;SDS011;55836;49.858;6.756;2024-01-25T03:09:25;9.37;;;2.63;;
68680;SDS011;55836;49.858;6.756;2024-01-25T03:11:52;4.13;;;2.03;;
68680;SDS011;55836;49.858;6.756;2024-01-25T03:14:18;6.90;;;2.20;;
68680;SDS011;55836;49.858;6.756;2024-01-25T03:16:44;9.37;;;2.50;;
68680;SDS011;55836;49.858;6.756;2024-01-25T03:19:10;9.57;;;2.57;;
68680;SDS011;55836;49.858;6.756;2024-01-25T03:21:36;8.70;;;2.97;;
68680;SDS011;55836;49.858;6.756;2024-01-25T03:24:02;5.30;;;2.27;;
68680;SDS011;55836;49.858;6.756;2024-01-25T03:26:28;8.73;;;2.83;;
68680;SDS011;55836;49.858;6.756;2024-01-25T03:28:54;10.30;;;2.70;;
68680;SDS011;55836;49.858;6.756;2024-01-25T03:31:20;12.10;;;2.90;;
68680;SDS011;55836;49.858;6.756;2024-01-25T03:33:46;8.50;;;2.33;;
68680;SDS011;55836;49.858;6.756;2024-01-25T03:36:15;11.77;;;2.73;;
68680;SDS011;55836;49.858;6.756;2024-01-25T03:38:41;11.80;;;2.77;;
68680;SDS011;55836;49.858;6.756;2024-01-25T03:41:08;11.33;;;3.53;;
68680;SDS011;55836;49.858;6.756;2024-01-25T03:43:34;7.03;;;3.03;;
68680;SDS011;55836;49.858;6.756;2024-01-25T03:46:00;8.40;;;3.17;;
68680;SDS011;55836;49.858;6.756;2024-01-25T03:48:27;9.07;;;3.20;;
68680;SDS011;55836;49.858;6.756;2024-01-25T03:50:54;7.70;;;2.00;;
68680;SDS011;55836;49.858;6.756;2024-01-25T03:53:21;6.60;;;3.07;;
68680;SDS011;55836;49.858;6.756;2024-01-25T03:55:47;8.00;;;2.63;;
68680;SDS011;55836;49.858;6.756;2024-01-25T03:58:14;7.33;;;2.43;;
68680;SDS011;55836;49.858;6.756;2024-01-25T04:00:40;6.80;;;2.33;;
68680;SDS011;55836;49.858;6.756;2024-01-25T04:03:06;8.97;;;3.07;;
68680;SDS011;55836;49.858;6.756;2024-01-25T04:05:32;8.03;;;2.60;;
68680;SDS011;55836;49.858;6.756;2024-01-25T04:07:58;6.13;;;2.80;;
68680;SDS011;55836;49.858;6.756;2024-01-25T04:10:24;6.23;;;2.30;;
68680;SDS011;55836;49.858;6.756;2024-01-25T04:12:50;8.30;;;3.83;;
68680;SDS011;55836;49.858;6.756;2024-01-25T04:15:17;9.07;;;2.70;;
68680;SDS011;55836;49.858;6.756;2024-01-25T04:17:43;13.30;;;3.20;;
68680;SDS011;55836;49.858;6.756;2024-01-25T04:20:09;9.20;;;3.13;;
68680;SDS011;55836;49.858;6.756;2024-01-25T04:22:35;5.90;;;3.30;;
68680;SDS011;55836;49.858;6.756;2024-01-25T04:25:01;6.57;;;3.60;;
68680;SDS011;55836;49.858;6.756;2024-01-25T04:27:28;15.53;;;3.60;;
68680;SDS011;55836;49.858;6.756;2024-01-25T04:29:54;11.00;;;3.10;;
68680;SDS011;55836;49.858;6.756;2024-01-25T04:32:19;5.17;;;2.27;;
68680;SDS011;55836;49.858;6.756;2024-01-25T04:34:45;7.90;;;2.23;;
68680;SDS011;55836;49.858;6.756;2024-01-25T04:37:12;6.17;;;2.40;;
68680;SDS011;55836;49.858;6.756;2024-01-25T04:39:38;7.90;;;3.13;;
68680;SDS011;55836;49.858;6.756;2024-01-25T04:42:04;12.00;;;2.87;;
68680;SDS011;55836;49.858;6.756;2024-01-25T04:44:30;11.13;;;3.17;;
68680;SDS011;55836;49.858;6.756;2024-01-25T04:46:56;7.40;;;3.13;;
68680;SDS011;55836;49.858;6.756;2024-01-25T04:49:23;11.23;;;4.40;;
68680;SDS011;55836;49.858;6.756;2024-01-25T04:51:50;8.13;;;2.57;;
68680;SDS011;55836;49.858;6.756;2024-01-25T04:54:15;10.10;;;3.43;;
68680;SDS011;55836;49.858;6.756;2024-01-25T04:56:42;10.50;;;2.97;;
68680;SDS011;55836;49.858;6.756;2024-01-25T04:59:08;6.80;;;3.10;;
68680;SDS011;55836;49.858;6.756;2024-01-25T05:01:34;11.63;;;2.60;;
68680;SDS011;55836;49.858;6.756;2024-01-25T05:04:00;9.80;;;3.00;;
68680;SDS011;55836;49.858;6.756;2024-01-25T05:06:26;6.70;;;2.60;;
68680;SDS011;55836;49.858;6.756;2024-01-25T05:08:52;6.43;;;2.53;;
68680;SDS011;55836;49.858;6.756;2024-01-25T05:11:18;6.43;;;2.57;;
68680;SDS011;55836;49.858;6.756;2024-01-25T05:13:44;14.00;;;3.57;;
68680;SDS011;55836;49.858;6.756;2024-01-25T05:16:10;8.17;;;2.60;;
68680;SDS011;55836;49.858;6.756;2024-01-25T05:18:37;9.47;;;2.83;;
68680;SDS011;55836;49.858;6.756;2024-01-25T05:21:03;8.60;;;2.80;;
68680;SDS011;55836;49.858;6.756;2024-01-25T05:23:29;10.10;;;2.57;;
68680;SDS011;55836;49.858;6.756;2024-01-25T05:25:55;7.30;;;2.33;;
68680;SDS011;55836;49.858;6.756;2024-01-25T05:28:21;7.20;;;3.20;;
68680;SDS011;55836;49.858;6.756;2024-01-25T05:30:47;15.47;;;3.30;;
68680;SDS011;55836;49.858;6.756;2024-01-25T05:33:13;15.83;;;3.20;;
68680;SDS011;55836;49.858;6.756;2024-01-25T05:35:39;10.23;;;3.30;;
68680;SDS011;55836;49.858;6.756;2024-01-25T05:38:05;8.80;;;2.70;;
68680;SDS011;55836;49.858;6.756;2024-01-25T05:40:31;11.00;;;3.67;;
68680;SDS011;55836;49.858;6.756;2024-01-25T05:42:57;12.70;;;3.20;;
68680;SDS011;55836;49.858;6.756;2024-01-25T05:45:23;6.57;;;2.33;;
68680;SDS011;55836;49.858;6.756;2024-01-25T05:47:49;7.13;;;2.70;;
68680;SDS011;55836;49.858;6.756;2024-01-25T05:50:15;7.23;;;2.40;;
68680;SDS011;55836;49.858;6.756;2024-01-25T05:52:42;5.97;;;2.67;;
68680;SDS011;55836;49.858;6.756;2024-01-25T05:55:08;12.27;;;3.37;;
68680;SDS011;55836;49.858;6.756;2024-01-25T05:57:37;12.77;;;4.13;;
68680;SDS011;55836;49.858;6.756;2024-01-25T06:00:03;13.63;;;3.03;;
68680;SDS011;55836;49.858;6.756;2024-01-25T06:02:33;10.27;;;2.70;;
68680;SDS011;55836;49.858;6.756;2024-01-25T06:04:59;7.37;;;2.87;;
68680;SDS011;55836;49.858;6.756;2024-01-25T06:07:25;4.23;;;2.27;;
68680;SDS011;55836;49.858;6.756;2024-01-25T06:09:52;5.77;;;2.37;;
68680;SDS011;55836;49.858;6.756;2024-01-25T06:12:18;3.87;;;1.93;;
68680;SDS011;55836;49.858;6.756;2024-01-25T06:14:44;11.17;;;2.67;;
68680;SDS011;55836;49.858;6.756;2024-01-25T06:17:10;11.70;;;3.37;;
68680;SDS011;55836;49.858;6.756;2024-01-25T06:19:36;8.80;;;3.43;;
68680;SDS011;55836;49.858;6.756;2024-01-25T06:22:02;6.70;;;2.80;;
68680;SDS011;55836;49.858;6.756;2024-01-25T06:24:28;7.37;;;2.67;;
68680;SDS011;55836;49.858;6.756;2024-01-25T06:26:55;8.47;;;2.30;;
68680;SDS011;55836;49.858;6.756;2024-01-25T06:29:25;11.67;;;3.47;;
68680;SDS011;55836;49.858;6.756;2024-01-25T06:31:51;6.53;;;2.67;;
68680;SDS011;55836;49.858;6.756;2024-01-25T06:34:17;10.40;;;3.00;;
68680;SDS011;55836;49.858;6.756;2024-01-25T06:36:43;9.40;;;3.00;;
68680;SDS011;55836;49.858;6.756;2024-01-25T06:39:08;7.97;;;3.97;;
68680;SDS011;55836;49.858;6.756;2024-01-25T06:41:35;13.43;;;4.20;;
68680;SDS011;55836;49.858;6.756;2024-01-25T06:44:01;10.63;;;3.83;;
68680;SDS011;55836;49.858;6.756;2024-01-25T06:46:27;6.77;;;3.13;;
68680;SDS011;55836;49.858;6.756;2024-01-25T06:48:54;10.03;;;4.10;;
68680;SDS011;55836;49.858;6.756;2024-01-25T06:51:20;7.47;;;3.37;;
68680;SDS011;55836;49.858;6.756;2024-01-25T06:53:46;8.10;;;2.83;;
68680;SDS011;55836;49.858;6.756;2024-01-25T06:56:12;3.43;;;2.33;;
68680;SDS011;55836;49.858;6.756;2024-01-25T06:58:38;6.33;;;2.90;;
68680;SDS011;55836;49.858;6.756;2024-01-25T07:01:04;9.93;;;3.37;;
68680;SDS011;55836;49.858;6.756;2024-01-25T07:03:30;9.67;;;2.57;;
68680;SDS011;55836;49.858;6.756;2024-01-25T07:05:56;4.30;;;2.70;;
68680;SDS011;55836;49.858;6.756;2024-01-25T07:08:22;3.50;;;2.40;;
68680;SDS011;55836;49.858;6.756;2024-01-25T07:10:49;7.83;;;2.53;;
68680;SDS011;55836;49.858;6.756;2024-01-25T07:13:15;5.17;;;3.23;;
68680;SDS011;55836;49.858;6.756;2024-01-25T07:15:41;6.17;;;2.80;;
68680;SDS011;55836;49.858;6.756;2024-01-25T07:18:07;10.17;;;2.50;;
68680;SDS011;55836;49.858;6.756;2024-01-25T07:20:33;9.47;;;2.50;;
68680;SDS011;55836;49.858;6.756;2024-01-25T07:23:00;6.23;;;2.70;;
68680;SDS011;55836;49.858;6.756;2024-01-25T07:25:26;5.63;;;2.57;;
68680;SDS011;55836;49.858;6.756;2024-01-25T07:27:52;7.03;;;2.93;;
68680;SDS011;55836;49.858;6.756;2024-01-25T07:30:18;9.60;;;3.57;;
68680;SDS011;55836;49.858;6.756;2024-01-25T07:32:44;9.77;;;3.63;;
68680;SDS011;55836;49.858;6.756;2024-01-25T07:35:11;6.23;;;2.67;;
68680;SDS011;55836;49.858;6.756;2024-01-25T07:37:38;6.87;;;2.30;;
68680;SDS011;55836;49.858;6.756;2024-01-25T07:40:05;5.20;;;2.37;;
68680;SDS011;55836;49.858;6.756;2024-01-25T07:42:32;13.00;;;3.73;;
68680;SDS011;55836;49.858;6.756;2024-01-25T07:44:58;5.60;;;2.87;;
68680;SDS011;55836;49.858;6.756;2024-01-25T07:47:24;17.50;;;4.20;;
68680;SDS011;55836;49.858;6.756;2024-01-25T07:49:50;7.17;;;2.40;;
68680;SDS011;55836;49.858;6.756;2024-01-25T07:52:16;8.30;;;2.47;;
68680;SDS011;55836;49.858;6.756;2024-01-25T07:54:41;5.00;;;2.23;;
68680;SDS011;55836;49.858;6.756;2024-01-25T07:57:09;8.07;;;2.37;;
68680;SDS011;55836;49.858;6.756;2024-01-25T07:59:35;22.03;;;7.00;;
68680;SDS011;55836;49.858;6.756;2024-01-25T08:02:01;10.20;;;3.53;;
68680;SDS011;55836;49.858;6.756;2024-01-25T08:04:27;8.23;;;3.27;;
68680;SDS011;55836;49.858;6.756;2024-01-25T08:06:53;6.67;;;2.53;;
68680;SDS011;55836;49.858;6.756;2024-01-25T08:09:19;12.33;;;3.83;;
68680;SDS011;55836;49.858;6.756;2024-01-25T08:11:45;9.83;;;3.97;;
68680;SDS011;55836;49.858;6.756;2024-01-25T08:14:11;12.63;;;4.53;;
68680;SDS011;55836;49.858;6.756;2024-01-25T08:16:37;11.17;;;4.50;;
68680;SDS011;55836;49.858;6.756;2024-01-25T08:19:03;8.93;;;3.47;;
68680;SDS011;55836;49.858;6.756;2024-01-25T08:21:29;7.57;;;3.47;;
68680;SDS011;55836;49.858;6.756;2024-01-25T08:23:55;11.10;;;4.10;;
68680;SDS011;55836;49.858;6.756;2024-01-25T08:26:21;9.33;;;3.90;;
68680;SDS011;55836;49.858;6.756;2024-01-25T08:28:47;10.33;;;4.17;;
68680;SDS011;55836;49.858;6.756;2024-01-25T08:31:13;7.10;;;3.77;;
68680;SDS011;55836;49.858;6.756;2024-01-25T08:33:40;11.50;;;4.30;;
68680;SDS011;55836;49.858;6.756;2024-01-25T08:36:12;9.67;;;4.10;;
68680;SDS011;55836;49.858;6.756;2024-01-25T08:38:38;9.13;;;4.63;;
68680;SDS011;55836;49.858;6.756;2024-01-25T08:41:04;18.00;;;5.60;;
68680;SDS011;55836;49.858;6.756;2024-01-25T08:43:30;13.63;;;5.47;;
68680;SDS011;55836;49.858;6.756;2024-01-25T08:45:56;10.67;;;5.37;;
68680;SDS011;55836;49.858;6.756;2024-01-25T08:48:22;15.40;;;5.77;;
68680;SDS011;55836;49.858;6.756;2024-01-25T08:50:48;13.83;;;5.50;;
68680;SDS011;55836;49.858;6.756;2024-01-25T08:53:18;14.20;;;4.93;;
68680;SDS011;55836;49.858;6.756;2024-01-25T08:55:47;10.67;;;5.13;;
68680;SDS011;55836;49.858;6.756;2024-01-25T08:58:13;12.67;;;6.03;;
68680;SDS011;55836;49.858;6.756;2024-01-25T09:00:39;10.30;;;5.37;;
68680;SDS011;55836;49.858;6.756;2024-01-25T09:03:05;13.60;;;4.50;;
68680;SDS011;55836;49.858;6.756;2024-01-25T09:05:31;8.80;;;4.20;;
68680;SDS011;55836;49.858;6.756;2024-01-25T09:07:59;10.17;;;5.23;;
68680;SDS011;55836;49.858;6.756;2024-01-25T09:10:25;11.20;;;5.10;;
68680;SDS011;55836;49.858;6.756;2024-01-25T09:12:51;13.67;;;4.93;;
68680;SDS011;55836;49.858;6.756;2024-01-25T09:15:17;12.63;;;5.90;;
68680;SDS011;55836;49.858;6.756;2024-01-25T09:17:43;18.70;;;6.13;;
68680;SDS011;55836;49.858;6.756;2024-01-25T09:20:10;14.60;;;6.20;;
68680;SDS011;55836;49.858;6.756;2024-01-25T09:22:36;10.50;;;5.50;;
68680;SDS011;55836;49.858;6.756;2024-01-25T09:25:02;12.73;;;5.80;;
68680;SDS011;55836;49.858;6.756;2024-01-25T09:27:28;13.17;;;5.93;;
68680;SDS011;55836;49.858;6.756;2024-01-25T09:29:54;11.57;;;5.37;;
68680;SDS011;55836;49.858;6.756;2024-01-25T09:32:20;14.70;;;4.77;;
68680;SDS011;55836;49.858;6.756;2024-01-25T09:34:46;17.33;;;5.47;;
68680;SDS011;55836;49.858;6.756;2024-01-25T09:37:13;18.80;;;6.93;;
68680;SDS011;55836;49.858;6.756;2024-01-25T09:39:39;10.03;;;5.07;;
68680;SDS011;55836;49.858;6.756;2024-01-25T09:42:05;17.33;;;6.60;;
68680;SDS011;55836;49.858;6.756;2024-01-25T09:44:32;11.30;;;5.27;;
68680;SDS011;55836;49.858;6.756;2024-01-25T09:46:58;18.20;;;6.10;;
68680;SDS011;55836;49.858;6.756;2024-01-25T09:49:24;17.30;;;5.20;;
68680;SDS011;55836;49.858;6.756;2024-01-25T09:51:51;20.83;;;6.07;;
68680;SDS011;55836;49.858;6.756;2024-01-25T09:54:17;25.43;;;6.63;;
68680;SDS011;55836;49.858;6.756;2024-01-25T09:56:43;16.70;;;5.13;;
68680;SDS011;55836;49.858;6.756;2024-01-25T09:59:09;16.67;;;6.07;;
68680;SDS011;55836;49.858;6.756;2024-01-25T10:01:36;18.47;;;5.90;;
68680;SDS011;55836;49.858;6.756;2024-01-25T10:04:05;21.13;;;6.40;;
68680;SDS011;55836;49.858;6.756;2024-01-25T10:06:32;14.60;;;6.17;;
68680;SDS011;55836;49.858;6.756;2024-01-25T10:08:58;21.87;;;6.97;;
68680;SDS011;55836;49.858;6.756;2024-01-25T10:11:27;13.50;;;5.60;;
68680;SDS011;55836;49.858;6.756;2024-01-25T10:14:00;16.87;;;5.73;;
68680;SDS011;55836;49.858;6.756;2024-01-25T10:16:26;14.50;;;5.47;;
68680;SDS011;55836;49.858;6.756;2024-01-25T10:18:52;12.90;;;5.97;;
68680;SDS011;55836;49.858;6.756;2024-01-25T10:21:18;15.10;;;5.20;;
68680;SDS011;55836;49.858;6.756;2024-01-25T10:23:45;16.73;;;5.23;;
68680;SDS011;55836;49.858;6.756;2024-01-25T10:26:11;18.30;;;6.33;;
68680;SDS011;55836;49.858;6.756;2024-01-25T10:28:37;16.47;;;4.97;;
68680;SDS011;55836;49.858;6.756;2024-01-25T10:31:03;17.20;;;5.07;;
68680;SDS011;55836;49.858;6.756;2024-01-25T10:33:29;20.03;;;4.93;;
68680;SDS011;55836;49.858;6.756;2024-01-25T10:35:56;21.53;;;5.20;;
68680;SDS011;55836;49.858;6.756;2024-01-25T10:38:33;16.33;;;5.03;;
68680;SDS011;55836;49.858;6.756;2024-01-25T10:41:03;17.47;;;5.67;;
68680;SDS011;55836;49.858;6.756;2024-01-25T10:43:29;10.00;;;4.57;;
68680;SDS011;55836;49.858;6.756;2024-01-25T10:45:56;19.33;;;6.77;;
68680;SDS011;55836;49.858;6.756;2024-01-25T10:48:24;14.83;;;5.40;;
68680;SDS011;55836;49.858;6.756;2024-01-25T10:50:50;14.60;;;5.33;;
68680;SDS011;55836;49.858;6.756;2024-01-25T10:53:17;13.87;;;5.17;;
68680;SDS011;55836;49.858;6.756;2024-01-25T10:55:44;13.37;;;4.73;;
68680;SDS011;55836;49.858;6.756;2024-01-25T10:58:12;16.03;;;5.53;;
68680;SDS011;55836;49.858;6.756;2024-01-25T11:00:37;12.67;;;5.10;;
68680;SDS011;55836;49.858;6.756;2024-01-25T11:03:04;13.90;;;5.60;;
68680;SDS011;55836;49.858;6.756;2024-01-25T11:05:31;23.80;;;5.03;;
68680;SDS011;55836;49.858;6.756;2024-01-25T11:07:57;12.60;;;4.87;;
68680;SDS011;55836;49.858;6.756;2024-01-25T11:10:26;15.53;;;7.90;;
68680;SDS011;55836;49.858;6.756;2024-01-25T11:15:22;14.07;;;4.63;;
68680;SDS011;55836;49.858;6.756;2024-01-25T11:17:55;15.30;;;6.40;;
68680;SDS011;55836;49.858;6.756;2024-01-25T11:20:21;16.73;;;4.70;;
68680;SDS011;55836;49.858;6.756;2024-01-25T11:22:47;12.80;;;4.87;;
68680;SDS011;55836;49.858;6.756;2024-01-25T11:25:19;11.87;;;4.60;;
68680;SDS011;55836;49.858;6.756;2024-01-25T11:27:45;13.37;;;5.10;;
68680;SDS011;55836;49.858;6.756;2024-01-25T11:30:12;13.37;;;4.73;;
68680;SDS011;55836;49.858;6.756;2024-01-25T11:32:39;19.03;;;5.47;;
68680;SDS011;55836;49.858;6.756;2024-01-25T11:35:05;18.50;;;5.57;;
68680;SDS011;55836;49.858;6.756;2024-01-25T11:37:36;20.00;;;5.73;;
68680;SDS011;55836;49.858;6.756;2024-01-25T11:40:02;15.00;;;5.03;;
68680;SDS011;55836;49.858;6.756;2024-01-25T11:42:28;15.47;;;4.50;;
68680;SDS011;55836;49.858;6.756;2024-01-25T11:44:55;14.50;;;4.53;;
68680;SDS011;55836;49.858;6.756;2024-01-25T11:47:21;11.33;;;4.20;;
68680;SDS011;55836;49.858;6.756;2024-01-25T11:49:47;14.17;;;5.27;;
68680;SDS011;55836;49.858;6.756;2024-01-25T11:52:13;19.70;;;5.97;;
68680;SDS011;55836;49.858;6.756;2024-01-25T11:54:40;18.77;;;6.23;;
68680;SDS011;55836;49.858;6.756;2024-01-25T11:57:12;13.00;;;4.60;;
68680;SDS011;55836;49.858;6.756;2024-01-25T11:59:38;17.00;;;4.33;;
68680;SDS011;55836;49.858;6.756;2024-01-25T12:02:04;14.10;;;4.20;;
68680;SDS011;55836;49.858;6.756;2024-01-25T12:04:30;12.57;;;4.40;;
68680;SDS011;55836;49.858;6.756;2024-01-25T12:06:56;21.97;;;4.80;;
68680;SDS011;55836;49.858;6.756;2024-01-25T12:09:22;15.17;;;5.40;;
68680;SDS011;55836;49.858;6.756;2024-01-25T12:11:51;16.87;;;4.60;;
68680;SDS011;55836;49.858;6.756;2024-01-25T12:14:17;17.80;;;4.17;;
68680;SDS011;55836;49.858;6.756;2024-01-25T12:16:43;9.10;;;4.57;;
68680;SDS011;55836;49.858;6.756;2024-01-25T12:19:09;15.80;;;5.33;;
68680;SDS011;55836;49.858;6.756;2024-01-25T12:21:35;16.83;;;4.67;;
68680;SDS011;55836;49.858;6.756;2024-01-25T12:24:01;17.57;;;4.17;;
68680;SDS011;55836;49.858;6.756;2024-01-25T12:26:28;20.33;;;5.47;;
68680;SDS011;55836;49.858;6.756;2024-01-25T12:28:54;15.77;;;5.80;;
68680;SDS011;55836;49.858;6.756;2024-01-25T12:31:20;19.23;;;6.03;;
68680;SDS011;55836;49.858;6.756;2024-01-25T12:33:46;16.33;;;4.77;;
68680;SDS011;55836;49.858;6.756;2024-01-25T12:36:12;18.90;;;5.73;;
68680;SDS011;55836;49.858;6.756;2024-01-25T12:38:38;13.70;;;4.63;;
68680;SDS011;55836;49.858;6.756;2024-01-25T12:41:04;15.77;;;4.53;;
68680;SDS011;55836;49.858;6.756;2024-01-25T12:43:30;16.17;;;4.57;;
68680;SDS011;55836;49.858;6.756;2024-01-25T12:45:56;15.67;;;5.17;;
68680;SDS011;55836;49.858;6.756;2024-01-25T12:48:22;19.27;;;4.23;;
68680;SDS011;55836;49.858;6.756;2024-01-25T12:50:48;16.47;;;5.57;;
68680;SDS011;55836;49.858;6.756;2024-01-25T12:53:14;13.17;;;4.80;;
68680;SDS011;55836;49.858;6.756;2024-01-25T12:55:40;15.53;;;4.43;;
68680;SDS011;55836;49.858;6.756;2024-01-25T12:58:06;17.67;;;4.90;;
68680;SDS011;55836;49.858;6.756;2024-01-25T13:00:32;12.40;;;4.20;;
68680;SDS011;55836;49.858;6.756;2024-01-25T13:02:58;15.57;;;4.47;;
68680;SDS011;55836;49.858;6.756;2024-01-25T13:05:27;17.50;;;4.23;;
68680;SDS011;55836;49.858;6.756;2024-01-25T13:07:53;11.27;;;3.90;;
68680;SDS011;55836;49.858;6.756;2024-01-25T13:10:19;10.30;;;4.10;;
68680;SDS011;55836;49.858;6.756;2024-01-25T13:12:45;7.70;;;3.77;;
68680;SDS011;55836;49.858;6.756;2024-01-25T13:15:11;14.23;;;3.90;;
68680;SDS011;55836;49.858;6.756;2024-01-25T13:17:37;16.00;;;3.97;;
68680;SDS011;55836;49.858;6.756;2024-01-25T13:20:04;10.80;;;3.60;;
68680;SDS011;55836;49.858;6.756;2024-01-25T13:22:31;11.17;;;4.23;;
68680;SDS011;55836;49.858;6.756;2024-01-25T13:24:58;16.73;;;5.50;;
68680;SDS011;55836;49.858;6.756;2024-01-25T13:27:25;14.97;;;4.67;;
68680;SDS011;55836;49.858;6.756;2024-01-25T13:29:51;12.50;;;4.10;;
68680;SDS011;55836;49.858;6.756;2024-01-25T13:32:18;13.80;;;4.73;;
68680;SDS011;55836;49.858;6.756;2024-01-25T13:34:44;15.33;;;4.43;;
68680;SDS011;55836;49.858;6.756;2024-01-25T13:37:10;9.87;;;3.80;;
68680;SDS011;55836;49.858;6.756;2024-01-25T13:39:36;16.47;;;4.20;;
68680;SDS011;55836;49.858;6.756;2024-01-25T13:42:02;14.43;;;3.83;;
68680;SDS011;55836;49.858;6.756;2024-01-25T13:44:28;15.23;;;4.97;;
68680;SDS011;55836;49.858;6.756;2024-01-25T13:46:53;9.53;;;3.27;;
68680;SDS011;55836;49.858;6.756;2024-01-25T13:49:21;11.93;;;3.03;;
68680;SDS011;55836;49.858;6.756;2024-01-25T13:51:47;10.90;;;3.80;;
68680;SDS011;55836;49.858;6.756;2024-01-25T13:54:13;11.37;;;3.93;;
68680;SDS011;55836;49.858;6.756;2024-01-25T13:56:38;10.40;;;3.50;;
68680;SDS011;55836;49.858;6.756;2024-01-25T13:59:05;9.30;;;3.30;;
68680;SDS011;55836;49.858;6.756;2024-01-25T14:01:31;11.83;;;3.20;;
68680;SDS011;55836;49.858;6.756;2024-01-25T14:03:57;9.43;;;3.83;;
68680;SDS011;55836;49.858;6.756;2024-01-25T14:06:23;13.47;;;3.83;;
68680;SDS011;55836;49.858;6.756;2024-01-25T14:08:49;10.07;;;3.77;;
68680;SDS011;55836;49.858;6.756;2024-01-25T14:11:15;11.37;;;3.47;;
68680;SDS011;55836;49.858;6.756;2024-01-25T14:13:42;8.13;;;3.77;;
68680;SDS011;55836;49.858;6.756;2024-01-25T14:16:08;11.73;;;3.70;;
68680;SDS011;55836;49.858;6.756;2024-01-25T14:18:38;8.77;;;3.90;;
68680;SDS011;55836;49.858;6.756;2024-01-25T14:21:05;11.07;;;5.60;;
68680;SDS011;55836;49.858;6.756;2024-01-25T14:23:31;16.37;;;6.83;;
68680;SDS011;55836;49.858;6.756;2024-01-25T14:25:57;8.10;;;4.43;;
68680;SDS011;55836;49.858;6.756;2024-01-25T14:28:23;10.70;;;5.53;;
68680;SDS011;55836;49.858;6.756;2024-01-25T14:30:49;10.97;;;5.03;;
68680;SDS011;55836;49.858;6.756;2024-01-25T14:33:15;8.83;;;3.50;;
68680;SDS011;55836;49.858;6.756;2024-01-25T14:35:41;17.63;;;5.37;;
68680;SDS011;55836;49.858;6.756;2024-01-25T14:38:07;8.27;;;3.70;;